EWG2544 EDDS-LEIB
Flight info
| Callsign | EWG2544 |
|---|---|
| Flight time | 1h 51m |
| Altitude | 37000 |
| Route | ROTWE5B ROTWE Y126 TUBLO N850 NATOR DCT LUTIX DCT BENOT DCT NEMOS DCT GEVEA DCT INCUS DCT BALSI DCT RETNO DCT TUPOX DCT MTG DCT DIVKO DCT VATIR DCT PIVUS DCT SULID DCT DIMIB DCT POS |
| Aircraft | A319/M-SDE3FGHIRWY/LB1 |
Departure
| Time | 2026-05-07 09:56 |
|---|---|
| Airport | Stuttgart Airport (EDDS) |
Arrival
| Time | 2026-05-07 11:48 |
|---|---|
| Airport | Ibiza Airport (LEIB) |
| Time | Latitude | Longitude | Altitude | Speed | Heading |
|---|---|---|---|---|---|
| 2026-05-07 09:31 | 48.68871 | 9.19288 | 1315 ft | 0 kts | 344° |
| 2026-05-07 09:41 | 48.68867 | 9.19289 | 1315 ft | 3 kts | 344° |
| 2026-05-07 09:41 | 48.68849 | 9.19297 | 1315 ft | 3 kts | 344° |
| 2026-05-07 09:42 | 48.68832 | 9.19305 | 1315 ft | 3 kts | 9° |
| 2026-05-07 09:42 | 48.68813 | 9.19301 | 1315 ft | 3 kts | 8° |
| 2026-05-07 09:42 | 48.68798 | 9.19289 | 1315 ft | 3 kts | 49° |
| 2026-05-07 09:42 | 48.68786 | 9.19268 | 1315 ft | 2 kts | 49° |
| 2026-05-07 09:43 | 48.68778 | 9.19249 | 1315 ft | 2 kts | 90° |
| 2026-05-07 09:43 | 48.68776 | 9.19228 | 1316 ft | 0 kts | 69° |
| 2026-05-07 09:43 | 48.68777 | 9.19230 | 1316 ft | 0 kts | 69° |
| 2026-05-07 09:44 | 48.68778 | 9.19234 | 1316 ft | 3 kts | 69° |
| 2026-05-07 09:44 | 48.68796 | 9.19320 | 1314 ft | 14 kts | 73° |
| 2026-05-07 09:44 | 48.68824 | 9.19481 | 1312 ft | 18 kts | 75° |
| 2026-05-07 09:45 | 48.68862 | 9.19678 | 1308 ft | 21 kts | 73° |
| 2026-05-07 09:45 | 48.68884 | 9.19891 | 1302 ft | 16 kts | 129° |
| 2026-05-07 09:45 | 48.68803 | 9.19915 | 1296 ft | 14 kts | 153° |
| 2026-05-07 09:45 | 48.68759 | 9.20070 | 1289 ft | 20 kts | 77° |
| 2026-05-07 09:46 | 48.68803 | 9.20287 | 1287 ft | 24 kts | 72° |
| 2026-05-07 09:46 | 48.68850 | 9.20547 | 1281 ft | 28 kts | 75° |
| 2026-05-07 09:46 | 48.68905 | 9.20850 | 1273 ft | 32 kts | 73° |
| 2026-05-07 09:46 | 48.68974 | 9.21192 | 1264 ft | 36 kts | 73° |
| 2026-05-07 09:47 | 48.69045 | 9.21560 | 1256 ft | 36 kts | 74° |
| 2026-05-07 09:47 | 48.69111 | 9.21913 | 1253 ft | 35 kts | 74° |
| 2026-05-07 09:47 | 48.69176 | 9.22259 | 1239 ft | 34 kts | 74° |
| 2026-05-07 09:47 | 48.69240 | 9.22597 | 1231 ft | 34 kts | 74° |
| 2026-05-07 09:48 | 48.69310 | 9.22965 | 1223 ft | 38 kts | 74° |
| 2026-05-07 09:48 | 48.69387 | 9.23374 | 1215 ft | 43 kts | 74° |
| 2026-05-07 09:48 | 48.69460 | 9.23761 | 1207 ft | 30 kts | 74° |
| 2026-05-07 09:48 | 48.69518 | 9.24066 | 1200 ft | 29 kts | 73° |
| 2026-05-07 09:49 | 48.69563 | 9.24296 | 1193 ft | 0 kts | 73° |
| 2026-05-07 09:54 | 48.69561 | 9.24286 | 1194 ft | 2 kts | 73° |
| 2026-05-07 09:54 | 48.69558 | 9.24270 | 1194 ft | 0 kts | 73° |
| 2026-05-07 09:55 | 48.69557 | 9.24279 | 1194 ft | 4 kts | 94° |
| 2026-05-07 09:55 | 48.69514 | 9.24309 | 1191 ft | 11 kts | 172° |
| 2026-05-07 09:55 | 48.69421 | 9.24333 | 1190 ft | 15 kts | 183° |
| 2026-05-07 09:55 | 48.69366 | 9.24199 | 1193 ft | 22 kts | 255° |
| 2026-05-07 09:56 | 48.69270 | 9.23672 | 1204 ft | 81 kts | 255° |
| 2026-05-07 09:56 | 48.69064 | 9.22578 | 1226 ft | 133 kts | 253° |
| 2026-05-07 09:56 | 48.68795 | 9.21107 | 1610 ft | 145 kts | 257° |
| 2026-05-07 09:56 | 48.68539 | 9.19647 | 2254 ft | 146 kts | 256° |
| 2026-05-07 09:57 | 48.68255 | 9.18075 | 2654 ft | 166 kts | 256° |
| 2026-05-07 09:57 | 48.67928 | 9.16266 | 3047 ft | 190 kts | 255° |
| 2026-05-07 09:57 | 48.67542 | 9.14229 | 3521 ft | 213 kts | 255° |
| 2026-05-07 09:57 | 48.67104 | 9.11941 | 4119 ft | 239 kts | 255° |
| 2026-05-07 09:58 | 48.66623 | 9.09439 | 5023 ft | 253 kts | 254° |
| 2026-05-07 09:58 | 48.66124 | 9.06864 | 6103 ft | 257 kts | 254° |
| 2026-05-07 09:58 | 48.65614 | 9.04238 | 7148 ft | 262 kts | 254° |
| 2026-05-07 09:58 | 48.65074 | 9.01582 | 8100 ft | 267 kts | 249° |
| 2026-05-07 09:59 | 48.64060 | 8.99253 | 8966 ft | 275 kts | 225° |
| 2026-05-07 09:59 | 48.62477 | 8.97515 | 9885 ft | 280 kts | 215° |
| 2026-05-07 09:59 | 48.60813 | 8.95870 | 10446 ft | 296 kts | 215° |
| 2026-05-07 09:59 | 48.59013 | 8.94099 | 10718 ft | 320 kts | 215° |
| 2026-05-07 10:00 | 48.57088 | 8.92182 | 11001 ft | 341 kts | 216° |
| 2026-05-07 10:00 | 48.55136 | 8.90079 | 11634 ft | 348 kts | 218° |
| 2026-05-07 10:00 | 48.53186 | 8.87873 | 12417 ft | 352 kts | 219° |
| 2026-05-07 10:00 | 48.51255 | 8.85649 | 13163 ft | 356 kts | 219° |
| 2026-05-07 10:01 | 48.49280 | 8.83372 | 13894 ft | 359 kts | 219° |
| 2026-05-07 10:01 | 48.47280 | 8.81081 | 14512 ft | 363 kts | 219° |
| 2026-05-07 10:01 | 48.45255 | 8.78779 | 15113 ft | 367 kts | 218° |
| 2026-05-07 10:01 | 48.43198 | 8.76457 | 15723 ft | 372 kts | 218° |
| 2026-05-07 10:02 | 48.41109 | 8.74104 | 16323 ft | 376 kts | 219° |
| 2026-05-07 10:02 | 48.39005 | 8.71733 | 16920 ft | 380 kts | 219° |
| 2026-05-07 10:02 | 48.36870 | 8.69336 | 17532 ft | 385 kts | 218° |
| 2026-05-07 10:02 | 48.34708 | 8.66918 | 18142 ft | 389 kts | 218° |
| 2026-05-07 10:03 | 48.32520 | 8.64477 | 18695 ft | 394 kts | 218° |
| 2026-05-07 10:03 | 48.30308 | 8.62011 | 19190 ft | 399 kts | 218° |
| 2026-05-07 10:03 | 48.28064 | 8.59510 | 19731 ft | 403 kts | 218° |
| 2026-05-07 10:03 | 48.25808 | 8.56994 | 20308 ft | 405 kts | 218° |
| 2026-05-07 10:04 | 48.23538 | 8.54465 | 20875 ft | 407 kts | 218° |
| 2026-05-07 10:04 | 48.21257 | 8.51920 | 21396 ft | 410 kts | 218° |
| 2026-05-07 10:04 | 48.18957 | 8.49362 | 21887 ft | 414 kts | 218° |
| 2026-05-07 10:04 | 48.16635 | 8.46785 | 22361 ft | 417 kts | 218° |
| 2026-05-07 10:05 | 48.14291 | 8.44187 | 22833 ft | 420 kts | 218° |
| 2026-05-07 10:05 | 48.11939 | 8.41582 | 23286 ft | 423 kts | 218° |
| 2026-05-07 10:05 | 48.09560 | 8.38950 | 23753 ft | 426 kts | 218° |
| 2026-05-07 10:05 | 48.07171 | 8.36311 | 24152 ft | 428 kts | 218° |
| 2026-05-07 10:06 | 48.04766 | 8.33654 | 24550 ft | 431 kts | 218° |
| 2026-05-07 10:06 | 48.02347 | 8.30988 | 24956 ft | 434 kts | 218° |
| 2026-05-07 10:06 | 47.99910 | 8.28305 | 25341 ft | 436 kts | 218° |
| 2026-05-07 10:06 | 47.97460 | 8.25610 | 25734 ft | 439 kts | 218° |
| 2026-05-07 10:07 | 47.94988 | 8.22893 | 26107 ft | 442 kts | 218° |
| 2026-05-07 10:07 | 47.92504 | 8.20165 | 26472 ft | 445 kts | 218° |
| 2026-05-07 10:07 | 47.90009 | 8.17433 | 26889 ft | 446 kts | 218° |
| 2026-05-07 10:07 | 47.87499 | 8.14689 | 27255 ft | 449 kts | 217° |
| 2026-05-07 10:08 | 47.84977 | 8.11937 | 27602 ft | 451 kts | 217° |
| 2026-05-07 10:08 | 47.82430 | 8.09162 | 27947 ft | 454 kts | 217° |
| 2026-05-07 10:08 | 47.79875 | 8.06377 | 28268 ft | 457 kts | 218° |
| 2026-05-07 10:08 | 47.77304 | 8.03571 | 28603 ft | 460 kts | 217° |
| 2026-05-07 10:09 | 47.74716 | 8.00750 | 28960 ft | 462 kts | 217° |
| 2026-05-07 10:09 | 47.72119 | 7.97918 | 29246 ft | 465 kts | 218° |
| 2026-05-07 10:09 | 47.69501 | 7.95071 | 29657 ft | 466 kts | 217° |
| 2026-05-07 10:09 | 47.66886 | 7.92237 | 30169 ft | 464 kts | 217° |
| 2026-05-07 10:10 | 47.64310 | 7.89453 | 30551 ft | 464 kts | 217° |
| 2026-05-07 10:10 | 47.61711 | 7.86647 | 30992 ft | 461 kts | 217° |
| 2026-05-07 10:10 | 47.59125 | 7.83859 | 31476 ft | 458 kts | 217° |
| 2026-05-07 10:10 | 47.56562 | 7.81097 | 31986 ft | 455 kts | 218° |
| 2026-05-07 10:11 | 47.54003 | 7.78345 | 32492 ft | 452 kts | 218° |
| 2026-05-07 10:11 | 47.51467 | 7.75618 | 32954 ft | 449 kts | 218° |
| 2026-05-07 10:11 | 47.48983 | 7.72952 | 33413 ft | 447 kts | 218° |
| 2026-05-07 10:11 | 47.46467 | 7.70260 | 33879 ft | 445 kts | 218° |
| 2026-05-07 10:12 | 47.43964 | 7.67587 | 34282 ft | 443 kts | 218° |
| 2026-05-07 10:12 | 47.41470 | 7.64923 | 34647 ft | 442 kts | 218° |
| 2026-05-07 10:12 | 47.38977 | 7.62255 | 35008 ft | 441 kts | 218° |
| 2026-05-07 10:12 | 47.36491 | 7.59594 | 35347 ft | 441 kts | 218° |
| 2026-05-07 10:13 | 47.34010 | 7.56943 | 35658 ft | 440 kts | 218° |
| 2026-05-07 10:13 | 47.31528 | 7.54297 | 35980 ft | 440 kts | 218° |
| 2026-05-07 10:13 | 47.29049 | 7.51662 | 36297 ft | 439 kts | 218° |
| 2026-05-07 10:13 | 47.26576 | 7.49036 | 36610 ft | 438 kts | 218° |
| 2026-05-07 10:14 | 47.24103 | 7.46409 | 36900 ft | 438 kts | 217° |
| 2026-05-07 10:14 | 47.21631 | 7.43784 | 37030 ft | 440 kts | 217° |
| 2026-05-07 10:14 | 47.19169 | 7.41173 | 37054 ft | 443 kts | 217° |
| 2026-05-07 10:15 | 47.14122 | 7.35835 | 37052 ft | 445 kts | 217° |
| 2026-05-07 10:15 | 47.09098 | 7.30543 | 37039 ft | 444 kts | 217° |
| 2026-05-07 10:16 | 47.04099 | 7.25300 | 37032 ft | 444 kts | 217° |
| 2026-05-07 10:16 | 46.99074 | 7.20027 | 37036 ft | 444 kts | 217° |
| 2026-05-07 10:17 | 46.94048 | 7.14747 | 37022 ft | 445 kts | 218° |
| 2026-05-07 10:17 | 46.89014 | 7.09486 | 37037 ft | 444 kts | 218° |
| 2026-05-07 10:18 | 46.83979 | 7.04243 | 37039 ft | 444 kts | 218° |
| 2026-05-07 10:18 | 46.78942 | 6.99006 | 37040 ft | 444 kts | 218° |
| 2026-05-07 10:19 | 46.73906 | 6.93783 | 37033 ft | 444 kts | 218° |
| 2026-05-07 10:19 | 46.68878 | 6.88577 | 37042 ft | 443 kts | 218° |
| 2026-05-07 10:20 | 46.63843 | 6.83386 | 37046 ft | 443 kts | 218° |
| 2026-05-07 10:20 | 46.58814 | 6.78213 | 37043 ft | 443 kts | 218° |
| 2026-05-07 10:21 | 46.53785 | 6.73038 | 37042 ft | 443 kts | 218° |
| 2026-05-07 10:21 | 46.48789 | 6.67914 | 37036 ft | 443 kts | 217° |
| 2026-05-07 10:22 | 46.43759 | 6.62769 | 37036 ft | 442 kts | 217° |
| 2026-05-07 10:22 | 46.38736 | 6.57636 | 37037 ft | 442 kts | 217° |
| 2026-05-07 10:23 | 46.33709 | 6.52510 | 37035 ft | 442 kts | 218° |
| 2026-05-07 10:23 | 46.29494 | 6.48230 | 37041 ft | 441 kts | 217° |
| 2026-05-07 10:24 | 46.24501 | 6.43178 | 37042 ft | 441 kts | 217° |
| 2026-05-07 10:24 | 46.19485 | 6.38103 | 37039 ft | 440 kts | 217° |
| 2026-05-07 10:25 | 46.14469 | 6.33038 | 37034 ft | 440 kts | 218° |
| 2026-05-07 10:25 | 46.09433 | 6.28013 | 37032 ft | 440 kts | 217° |
| 2026-05-07 10:26 | 46.04396 | 6.23037 | 37034 ft | 440 kts | 217° |
| 2026-05-07 10:26 | 45.99350 | 6.18055 | 37018 ft | 439 kts | 217° |
| 2026-05-07 10:27 | 45.94312 | 6.13081 | 37026 ft | 439 kts | 218° |
| 2026-05-07 10:27 | 45.89279 | 6.08126 | 37036 ft | 439 kts | 218° |
| 2026-05-07 10:28 | 45.83795 | 6.04224 | 37033 ft | 446 kts | 200° |
| 2026-05-07 10:28 | 45.77637 | 6.02635 | 37015 ft | 451 kts | 193° |
| 2026-05-07 10:29 | 45.71441 | 6.01276 | 37010 ft | 451 kts | 193° |
| 2026-05-07 10:29 | 45.65233 | 5.99919 | 37018 ft | 451 kts | 193° |
| 2026-05-07 10:30 | 45.55926 | 5.97865 | 37011 ft | 452 kts | 193° |
| 2026-05-07 10:30 | 45.49708 | 5.96499 | 37014 ft | 452 kts | 193° |
| 2026-05-07 10:31 | 45.43527 | 5.94961 | 37011 ft | 450 kts | 196° |
| 2026-05-07 10:31 | 45.37428 | 5.92997 | 37000 ft | 448 kts | 198° |
| 2026-05-07 10:32 | 45.31359 | 5.90963 | 37008 ft | 448 kts | 197° |
| 2026-05-07 10:32 | 45.25275 | 5.89027 | 37001 ft | 448 kts | 197° |
| 2026-05-07 10:33 | 45.19178 | 5.87153 | 36993 ft | 448 kts | 197° |
| 2026-05-07 10:33 | 45.13090 | 5.85288 | 36992 ft | 447 kts | 197° |
| 2026-05-07 10:34 | 45.07010 | 5.83412 | 36993 ft | 447 kts | 197° |
| 2026-05-07 10:34 | 45.00934 | 5.81535 | 36977 ft | 447 kts | 197° |
| 2026-05-07 10:35 | 44.94863 | 5.79664 | 36989 ft | 446 kts | 197° |
| 2026-05-07 10:35 | 44.88798 | 5.77795 | 36990 ft | 446 kts | 197° |
| 2026-05-07 10:36 | 44.82743 | 5.75943 | 36963 ft | 445 kts | 197° |
| 2026-05-07 10:36 | 44.76704 | 5.74098 | 36996 ft | 443 kts | 197° |
| 2026-05-07 10:37 | 44.70684 | 5.72259 | 36993 ft | 442 kts | 197° |
| 2026-05-07 10:37 | 44.64705 | 5.70444 | 37010 ft | 442 kts | 197° |
| 2026-05-07 10:38 | 44.58687 | 5.68609 | 36997 ft | 441 kts | 197° |
| 2026-05-07 10:38 | 44.52687 | 5.66791 | 36991 ft | 441 kts | 197° |
| 2026-05-07 10:39 | 44.46687 | 5.64976 | 36978 ft | 441 kts | 197° |
| 2026-05-07 10:39 | 44.40694 | 5.63162 | 36983 ft | 440 kts | 197° |
| 2026-05-07 10:40 | 44.34895 | 5.60660 | 36991 ft | 434 kts | 206° |
| 2026-05-07 10:40 | 44.29277 | 5.57570 | 36990 ft | 434 kts | 206° |
| 2026-05-07 10:41 | 44.23662 | 5.54493 | 36981 ft | 433 kts | 206° |
| 2026-05-07 10:41 | 44.18086 | 5.51446 | 36989 ft | 432 kts | 206° |
| 2026-05-07 10:42 | 44.12473 | 5.48390 | 36992 ft | 432 kts | 206° |
| 2026-05-07 10:42 | 44.06867 | 5.45339 | 36982 ft | 432 kts | 206° |
| 2026-05-07 10:43 | 44.01278 | 5.42315 | 36991 ft | 431 kts | 206° |
| 2026-05-07 10:43 | 43.95689 | 5.39290 | 36992 ft | 431 kts | 206° |
| 2026-05-07 10:44 | 43.90108 | 5.36270 | 36971 ft | 430 kts | 206° |
| 2026-05-07 10:44 | 43.84533 | 5.33253 | 36994 ft | 429 kts | 206° |
| 2026-05-07 10:45 | 43.78971 | 5.30246 | 37009 ft | 429 kts | 205° |
| 2026-05-07 10:45 | 43.73406 | 5.27260 | 37009 ft | 428 kts | 205° |
| 2026-05-07 10:46 | 43.67852 | 5.24285 | 36999 ft | 428 kts | 205° |
| 2026-05-07 10:46 | 43.62308 | 5.21317 | 37019 ft | 427 kts | 205° |
| 2026-05-07 10:47 | 43.56808 | 5.18376 | 37008 ft | 427 kts | 205° |
| 2026-05-07 10:47 | 43.51236 | 5.15390 | 37004 ft | 426 kts | 205° |
| 2026-05-07 10:48 | 43.45705 | 5.12448 | 37008 ft | 426 kts | 205° |
| 2026-05-07 10:48 | 43.40184 | 5.09513 | 37007 ft | 425 kts | 206° |
| 2026-05-07 10:49 | 43.35186 | 5.05454 | 37004 ft | 419 kts | 217° |
| 2026-05-07 10:49 | 43.30387 | 5.00916 | 36992 ft | 418 kts | 217° |
| 2026-05-07 10:50 | 43.25598 | 4.96398 | 37002 ft | 417 kts | 217° |
| 2026-05-07 10:50 | 43.20804 | 4.91905 | 37011 ft | 417 kts | 217° |
| 2026-05-07 10:51 | 43.16017 | 4.87426 | 37016 ft | 417 kts | 217° |
| 2026-05-07 10:51 | 43.11230 | 4.82945 | 36997 ft | 416 kts | 217° |
| 2026-05-07 10:52 | 43.06451 | 4.78474 | 37004 ft | 416 kts | 217° |
| 2026-05-07 10:52 | 43.01426 | 4.74505 | 37007 ft | 418 kts | 212° |
| 2026-05-07 10:53 | 42.96345 | 4.70649 | 37020 ft | 418 kts | 212° |
| 2026-05-07 10:53 | 42.91264 | 4.66797 | 37010 ft | 418 kts | 212° |
| 2026-05-07 10:54 | 42.86180 | 4.62963 | 37017 ft | 417 kts | 212° |
| 2026-05-07 10:54 | 42.81096 | 4.59136 | 37022 ft | 417 kts | 212° |
| 2026-05-07 10:55 | 42.76014 | 4.55308 | 37032 ft | 417 kts | 212° |
| 2026-05-07 10:55 | 42.70930 | 4.51484 | 37028 ft | 418 kts | 212° |
| 2026-05-07 10:56 | 42.65844 | 4.47665 | 37030 ft | 418 kts | 212° |
| 2026-05-07 10:56 | 42.60747 | 4.43855 | 37033 ft | 418 kts | 212° |
| 2026-05-07 10:57 | 42.55653 | 4.40045 | 37034 ft | 418 kts | 212° |
| 2026-05-07 10:57 | 42.50588 | 4.36262 | 37014 ft | 417 kts | 212° |
| 2026-05-07 10:58 | 42.45461 | 4.32453 | 37024 ft | 417 kts | 212° |
| 2026-05-07 10:58 | 42.40410 | 4.28708 | 37029 ft | 416 kts | 212° |
| 2026-05-07 10:59 | 42.35334 | 4.24943 | 37030 ft | 416 kts | 212° |
| 2026-05-07 10:59 | 42.30255 | 4.21176 | 37017 ft | 416 kts | 212° |
| 2026-05-07 11:00 | 42.25187 | 4.17429 | 37036 ft | 415 kts | 212° |
| 2026-05-07 11:00 | 42.20115 | 4.13690 | 37040 ft | 415 kts | 212° |
| 2026-05-07 11:01 | 42.15047 | 4.09967 | 37037 ft | 415 kts | 212° |
| 2026-05-07 11:01 | 42.09980 | 4.06243 | 37027 ft | 415 kts | 212° |
| 2026-05-07 11:02 | 42.04911 | 4.02525 | 37037 ft | 414 kts | 212° |
| 2026-05-07 11:02 | 41.99853 | 3.98809 | 37041 ft | 414 kts | 212° |
| 2026-05-07 11:03 | 41.94784 | 3.95108 | 37045 ft | 414 kts | 211° |
| 2026-05-07 11:03 | 41.89700 | 3.91463 | 37031 ft | 414 kts | 210° |
| 2026-05-07 11:04 | 41.84544 | 3.88004 | 37046 ft | 414 kts | 210° |
| 2026-05-07 11:04 | 41.80249 | 3.85177 | 37048 ft | 414 kts | 210° |
| 2026-05-07 11:05 | 41.75088 | 3.81754 | 37045 ft | 413 kts | 210° |
| 2026-05-07 11:05 | 41.69955 | 3.78306 | 37039 ft | 413 kts | 210° |
| 2026-05-07 11:06 | 41.64828 | 3.74856 | 37043 ft | 413 kts | 210° |
| 2026-05-07 11:06 | 41.59694 | 3.71430 | 37041 ft | 412 kts | 210° |
| 2026-05-07 11:07 | 41.54560 | 3.68017 | 37041 ft | 412 kts | 210° |
| 2026-05-07 11:07 | 41.49426 | 3.64616 | 37018 ft | 412 kts | 210° |
| 2026-05-07 11:08 | 41.44302 | 3.61214 | 37033 ft | 411 kts | 210° |
| 2026-05-07 11:08 | 41.39182 | 3.57818 | 37039 ft | 410 kts | 210° |
| 2026-05-07 11:09 | 41.34073 | 3.54438 | 37034 ft | 410 kts | 210° |
| 2026-05-07 11:09 | 41.28965 | 3.51061 | 37016 ft | 410 kts | 210° |
| 2026-05-07 11:10 | 41.23889 | 3.47719 | 37023 ft | 409 kts | 210° |
| 2026-05-07 11:10 | 41.18745 | 3.44470 | 37019 ft | 411 kts | 204° |
| 2026-05-07 11:11 | 41.13137 | 3.42720 | 37026 ft | 416 kts | 196° |
| 2026-05-07 11:11 | 41.07463 | 3.41227 | 36996 ft | 415 kts | 196° |
| 2026-05-07 11:12 | 41.01796 | 3.39740 | 37001 ft | 415 kts | 196° |
| 2026-05-07 11:12 | 40.96139 | 3.38255 | 37016 ft | 414 kts | 196° |
| 2026-05-07 11:13 | 40.90494 | 3.36774 | 37013 ft | 413 kts | 196° |
| 2026-05-07 11:13 | 40.84844 | 3.35284 | 36999 ft | 413 kts | 196° |
| 2026-05-07 11:14 | 40.79213 | 3.33803 | 37007 ft | 413 kts | 196° |
| 2026-05-07 11:14 | 40.73579 | 3.32321 | 37015 ft | 412 kts | 196° |
| 2026-05-07 11:15 | 40.67952 | 3.30861 | 37015 ft | 412 kts | 196° |
| 2026-05-07 11:15 | 40.62361 | 3.29407 | 37015 ft | 412 kts | 196° |
| 2026-05-07 11:16 | 40.56738 | 3.27941 | 37011 ft | 412 kts | 196° |
| 2026-05-07 11:16 | 40.51112 | 3.26476 | 37011 ft | 412 kts | 196° |
| 2026-05-07 11:17 | 40.45490 | 3.25022 | 37010 ft | 412 kts | 196° |
| 2026-05-07 11:17 | 40.39865 | 3.23574 | 36990 ft | 412 kts | 196° |
| 2026-05-07 11:18 | 40.34246 | 3.22125 | 37004 ft | 411 kts | 196° |
| 2026-05-07 11:18 | 40.28631 | 3.20678 | 37008 ft | 411 kts | 196° |
| 2026-05-07 11:19 | 40.23023 | 3.19223 | 37009 ft | 411 kts | 196° |
| 2026-05-07 11:19 | 40.17426 | 3.17774 | 36990 ft | 410 kts | 196° |
| 2026-05-07 11:20 | 40.11830 | 3.16330 | 37004 ft | 409 kts | 196° |
| 2026-05-07 11:20 | 40.06242 | 3.14904 | 37002 ft | 409 kts | 196° |
| 2026-05-07 11:21 | 40.00656 | 3.13477 | 37003 ft | 408 kts | 196° |
| 2026-05-07 11:21 | 39.95082 | 3.12056 | 36986 ft | 408 kts | 197° |
| 2026-05-07 11:22 | 39.89904 | 3.09403 | 36991 ft | 398 kts | 213° |
| 2026-05-07 11:22 | 39.85081 | 3.05870 | 36990 ft | 397 kts | 212° |
| 2026-05-07 11:23 | 39.80250 | 3.02365 | 36999 ft | 398 kts | 212° |
| 2026-05-07 11:23 | 39.75412 | 2.98858 | 36965 ft | 398 kts | 212° |
| 2026-05-07 11:24 | 39.70578 | 2.95351 | 36974 ft | 398 kts | 212° |
| 2026-05-07 11:24 | 39.65739 | 2.91847 | 36980 ft | 398 kts | 212° |
| 2026-05-07 11:25 | 39.60896 | 2.88352 | 36967 ft | 398 kts | 212° |
| 2026-05-07 11:25 | 39.56055 | 2.84851 | 36970 ft | 398 kts | 212° |
| 2026-05-07 11:26 | 39.51212 | 2.81359 | 36958 ft | 398 kts | 212° |
| 2026-05-07 11:26 | 39.46369 | 2.77889 | 36970 ft | 398 kts | 212° |
| 2026-05-07 11:27 | 39.42065 | 2.73515 | 36969 ft | 394 kts | 229° |
| 2026-05-07 11:27 | 39.38620 | 2.68013 | 36967 ft | 394 kts | 231° |
| 2026-05-07 11:28 | 39.35154 | 2.62514 | 36613 ft | 398 kts | 230° |
| 2026-05-07 11:28 | 39.33384 | 2.59721 | 35794 ft | 403 kts | 230° |
| 2026-05-07 11:28 | 39.31616 | 2.56933 | 35280 ft | 399 kts | 230° |
| 2026-05-07 11:29 | 39.29862 | 2.54166 | 34705 ft | 396 kts | 229° |
| 2026-05-07 11:29 | 39.28126 | 2.51425 | 34089 ft | 393 kts | 229° |
| 2026-05-07 11:29 | 39.26399 | 2.48699 | 33365 ft | 392 kts | 229° |
| 2026-05-07 11:29 | 39.24674 | 2.45976 | 32459 ft | 393 kts | 229° |
| 2026-05-07 11:30 | 39.22935 | 2.43230 | 31429 ft | 397 kts | 229° |
| 2026-05-07 11:30 | 39.21193 | 2.40487 | 30347 ft | 403 kts | 229° |
| 2026-05-07 11:30 | 39.19399 | 2.37665 | 29052 ft | 410 kts | 229° |
| 2026-05-07 11:30 | 39.17575 | 2.34797 | 27642 ft | 417 kts | 230° |
| 2026-05-07 11:31 | 39.15716 | 2.31872 | 26188 ft | 425 kts | 230° |
| 2026-05-07 11:31 | 39.13804 | 2.28867 | 24994 ft | 429 kts | 230° |
| 2026-05-07 11:31 | 39.11932 | 2.25928 | 23894 ft | 431 kts | 230° |
| 2026-05-07 11:31 | 39.10031 | 2.22948 | 22761 ft | 430 kts | 230° |
| 2026-05-07 11:32 | 39.06242 | 2.17027 | 20569 ft | 426 kts | 230° |
| 2026-05-07 11:32 | 39.04359 | 2.14090 | 19579 ft | 424 kts | 230° |
| 2026-05-07 11:32 | 39.02488 | 2.11171 | 18621 ft | 421 kts | 230° |
| 2026-05-07 11:33 | 39.00632 | 2.08271 | 17610 ft | 418 kts | 230° |
| 2026-05-07 11:33 | 38.98795 | 2.05395 | 16614 ft | 414 kts | 230° |
| 2026-05-07 11:33 | 38.96977 | 2.02548 | 15706 ft | 409 kts | 230° |
| 2026-05-07 11:33 | 38.95177 | 1.99741 | 14802 ft | 405 kts | 229° |
| 2026-05-07 11:34 | 38.93390 | 1.96967 | 13943 ft | 402 kts | 229° |
| 2026-05-07 11:34 | 38.91694 | 1.94119 | 13049 ft | 401 kts | 236° |
| 2026-05-07 11:34 | 38.90440 | 1.90941 | 12323 ft | 397 kts | 246° |
| 2026-05-07 11:34 | 38.89639 | 1.87583 | 11616 ft | 391 kts | 253° |
| 2026-05-07 11:35 | 38.88947 | 1.84237 | 10957 ft | 383 kts | 253° |
| 2026-05-07 11:35 | 38.88288 | 1.81021 | 10810 ft | 362 kts | 253° |
| 2026-05-07 11:35 | 38.87666 | 1.77974 | 10676 ft | 344 kts | 253° |
| 2026-05-07 11:35 | 38.87077 | 1.75079 | 10559 ft | 328 kts | 253° |
| 2026-05-07 11:36 | 38.86512 | 1.72309 | 10437 ft | 314 kts | 253° |
| 2026-05-07 11:36 | 38.85966 | 1.69651 | 10299 ft | 303 kts | 253° |
| 2026-05-07 11:36 | 38.85431 | 1.67065 | 10136 ft | 297 kts | 252° |
| 2026-05-07 11:36 | 38.84897 | 1.64509 | 10071 ft | 296 kts | 253° |
| 2026-05-07 11:37 | 38.84363 | 1.61957 | 9982 ft | 296 kts | 253° |
| 2026-05-07 11:37 | 38.83828 | 1.59403 | 9618 ft | 299 kts | 253° |
| 2026-05-07 11:37 | 38.83273 | 1.56827 | 9190 ft | 298 kts | 252° |
| 2026-05-07 11:37 | 38.82704 | 1.54255 | 8770 ft | 298 kts | 252° |
| 2026-05-07 11:38 | 38.82138 | 1.51710 | 8400 ft | 296 kts | 252° |
| 2026-05-07 11:38 | 38.81572 | 1.49172 | 8022 ft | 295 kts | 253° |
| 2026-05-07 11:38 | 38.81005 | 1.46645 | 7655 ft | 294 kts | 253° |
| 2026-05-07 11:38 | 38.80442 | 1.44137 | 7321 ft | 292 kts | 252° |
| 2026-05-07 11:39 | 38.79679 | 1.41785 | 6944 ft | 290 kts | 240° |
| 2026-05-07 11:39 | 38.78733 | 1.39509 | 6568 ft | 289 kts | 240° |
| 2026-05-07 11:39 | 38.77797 | 1.37248 | 6284 ft | 285 kts | 241° |
| 2026-05-07 11:39 | 38.76873 | 1.35012 | 5953 ft | 283 kts | 241° |
| 2026-05-07 11:40 | 38.75959 | 1.32803 | 5751 ft | 276 kts | 241° |
| 2026-05-07 11:40 | 38.75077 | 1.30671 | 5591 ft | 266 kts | 240° |
| 2026-05-07 11:40 | 38.74243 | 1.28609 | 5290 ft | 256 kts | 242° |
| 2026-05-07 11:40 | 38.73448 | 1.26606 | 4954 ft | 250 kts | 242° |
| 2026-05-07 11:41 | 38.72664 | 1.24620 | 4585 ft | 248 kts | 242° |
| 2026-05-07 11:41 | 38.71890 | 1.22662 | 4194 ft | 246 kts | 242° |
| 2026-05-07 11:41 | 38.71136 | 1.20704 | 3817 ft | 244 kts | 247° |
| 2026-05-07 11:41 | 38.70935 | 1.18598 | 3435 ft | 236 kts | 281° |
| 2026-05-07 11:42 | 38.71617 | 1.16760 | 3077 ft | 228 kts | 315° |
| 2026-05-07 11:42 | 38.72848 | 1.15579 | 3014 ft | 218 kts | 330° |
| 2026-05-07 11:42 | 38.74122 | 1.14591 | 3025 ft | 205 kts | 332° |
| 2026-05-07 11:42 | 38.75368 | 1.13738 | 2999 ft | 197 kts | 346° |
| 2026-05-07 11:43 | 38.76677 | 1.13751 | 2800 ft | 186 kts | 20° |
| 2026-05-07 11:43 | 38.77742 | 1.14594 | 2584 ft | 178 kts | 48° |
| 2026-05-07 11:43 | 38.78395 | 1.15921 | 2365 ft | 177 kts | 63° |
| 2026-05-07 11:43 | 38.78971 | 1.17307 | 2140 ft | 175 kts | 63° |
| 2026-05-07 11:44 | 38.79542 | 1.18678 | 2029 ft | 176 kts | 64° |
| 2026-05-07 11:44 | 38.80117 | 1.20058 | 2012 ft | 176 kts | 63° |
| 2026-05-07 11:44 | 38.80688 | 1.21429 | 2010 ft | 174 kts | 63° |
| 2026-05-07 11:44 | 38.81261 | 1.22805 | 2010 ft | 176 kts | 64° |
| 2026-05-07 11:45 | 38.81837 | 1.24190 | 1967 ft | 176 kts | 64° |
| 2026-05-07 11:45 | 38.82411 | 1.25570 | 1799 ft | 175 kts | 64° |
| 2026-05-07 11:45 | 38.82982 | 1.26943 | 1582 ft | 171 kts | 63° |
| 2026-05-07 11:45 | 38.83514 | 1.28220 | 1363 ft | 154 kts | 64° |
| 2026-05-07 11:46 | 38.83990 | 1.29363 | 1172 ft | 135 kts | 64° |
| 2026-05-07 11:46 | 38.84411 | 1.30377 | 996 ft | 125 kts | 64° |
| 2026-05-07 11:46 | 38.84815 | 1.31352 | 829 ft | 122 kts | 63° |
| 2026-05-07 11:46 | 38.85081 | 1.31993 | 733 ft | 122 kts | 64° |
| 2026-05-07 11:47 | 38.85476 | 1.32946 | 573 ft | 120 kts | 65° |
| 2026-05-07 11:47 | 38.85870 | 1.33896 | 407 ft | 121 kts | 64° |
| 2026-05-07 11:47 | 38.86268 | 1.34859 | 253 ft | 121 kts | 64° |
| 2026-05-07 11:47 | 38.86659 | 1.35810 | 58 ft | 120 kts | 64° |
| 2026-05-07 11:48 | 38.87026 | 1.36696 | 8 ft | 96 kts | 63° |
| 2026-05-07 11:48 | 38.87223 | 1.37164 | 12 ft | 43 kts | 62° |
| 2026-05-07 11:48 | 38.87335 | 1.37396 | 10 ft | 27 kts | 43° |
| 2026-05-07 11:48 | 38.87470 | 1.37517 | 9 ft | 17 kts | 31° |
| 2026-05-07 11:49 | 38.87555 | 1.37542 | 9 ft | 12 kts | 306° |
| 2026-05-07 11:49 | 38.87522 | 1.37439 | 10 ft | 14 kts | 242° |
| 2026-05-07 11:49 | 38.87473 | 1.37320 | 9 ft | 16 kts | 242° |
| 2026-05-07 11:49 | 38.87417 | 1.37182 | 9 ft | 19 kts | 243° |
| 2026-05-07 11:50 | 38.87354 | 1.37025 | 9 ft | 21 kts | 242° |
| 2026-05-07 11:50 | 38.87303 | 1.36906 | 9 ft | 4 kts | 240° |
| 2026-05-07 11:50 | 38.87297 | 1.36863 | 9 ft | 6 kts | 291° |
| 2026-05-07 11:50 | 38.87340 | 1.36836 | 9 ft | 8 kts | 336° |
| 2026-05-07 11:51 | 38.87397 | 1.36802 | 9 ft | 10 kts | 334° |
| 2026-05-07 11:51 | 38.87412 | 1.36735 | 9 ft | 9 kts | 246° |
| 2026-05-07 11:51 | 38.87386 | 1.36672 | 9 ft | 7 kts | 242° |
| 2026-05-07 11:51 | 38.87363 | 1.36617 | 10 ft | 7 kts | 241° |
| 2026-05-07 11:52 | 38.87342 | 1.36566 | 9 ft | 7 kts | 242° |
| 2026-05-07 11:52 | 38.87351 | 1.36513 | 10 ft | 7 kts | 334° |
| 2026-05-07 11:52 | 38.87390 | 1.36490 | 10 ft | 5 kts | 346° |
| 2026-05-07 11:52 | 38.87401 | 1.36498 | 9 ft | 2 kts | 28° |
| 2026-05-07 11:53 | 38.87406 | 1.36500 | 9 ft | 0 kts | 21° |
| 2026-05-07 11:54 | 38.87405 | 1.36501 | 9 ft | 0 kts | 12° |